sensor_id;sensor_type;location;lat;lon;timestamp;pressure;altitude;pressure_sealevel;temperature;humidity
24762;BME280;12865;51.934;10.330;2023-07-09T00:02:10;99532.75;;;20.63;69.80
24762;BME280;12865;51.934;10.330;2023-07-09T00:04:56;99541.13;;;20.68;69.56
24762;BME280;12865;51.934;10.330;2023-07-09T00:07:43;99535.66;;;20.61;70.30
24762;BME280;12865;51.934;10.330;2023-07-09T00:10:30;99543.78;;;20.61;70.56
24762;BME280;12865;51.934;10.330;2023-07-09T00:13:16;99541.44;;;20.52;70.22
24762;BME280;12865;51.934;10.330;2023-07-09T00:16:10;99542.78;;;20.41;71.14
24762;BME280;12865;51.934;10.330;2023-07-09T00:18:57;99542.97;;;20.39;71.48
24762;BME280;12865;51.934;10.330;2023-07-09T00:21:43;99539.84;;;20.36;71.53
24762;BME280;12865;51.934;10.330;2023-07-09T00:24:30;99534.84;;;20.39;70.38
24762;BME280;12865;51.934;10.330;2023-07-09T00:27:18;99542.78;;;20.41;69.05
24762;BME280;12865;51.934;10.330;2023-07-09T00:30:07;99540.91;;;20.42;68.33
24762;BME280;12865;51.934;10.330;2023-07-09T00:32:53;99540.91;;;20.42;68.48
24762;BME280;12865;51.934;10.330;2023-07-09T00:35:41;99540.13;;;20.48;68.72
24762;BME280;12865;51.934;10.330;2023-07-09T00:38:27;99538.34;;;20.33;68.77
24762;BME280;12865;51.934;10.330;2023-07-09T00:41:15;99526.66;;;20.33;69.24
24762;BME280;12865;51.934;10.330;2023-07-09T00:44:20;99538.19;;;20.20;70.22
24762;BME280;12865;51.934;10.330;2023-07-09T00:53:27;99538.19;;;20.20;69.06
24762;BME280;12865;51.934;10.330;2023-07-09T00:56:19;99538.00;;;20.22;69.31
24762;BME280;12865;51.934;10.330;2023-07-09T00:59:13;99536.50;;;20.19;69.32
24762;BME280;12865;51.934;10.330;2023-07-09T01:02:00;99534.72;;;20.05;70.75
24762;BME280;12865;51.934;10.330;2023-07-09T01:04:46;99536.78;;;20.03;70.14
24762;BME280;12865;51.934;10.330;2023-07-09T01:07:33;99531.50;;;19.95;70.46
24762;BME280;12865;51.934;10.330;2023-07-09T01:10:19;99535.09;;;20.02;69.16
24762;BME280;12865;51.934;10.330;2023-07-09T01:13:06;99531.50;;;19.95;70.38
24762;BME280;12865;51.934;10.330;2023-07-09T01:15:54;99535.03;;;19.95;70.09
24762;BME280;12865;51.934;10.330;2023-07-09T01:18:41;99530.97;;;19.85;71.87
24762;BME280;12865;51.934;10.330;2023-07-09T01:21:26;99532.56;;;19.79;73.07
24762;BME280;12865;51.934;10.330;2023-07-09T01:24:52;99535.97;;;19.67;73.37
24762;BME280;12865;51.934;10.330;2023-07-09T01:27:40;99530.47;;;19.60;73.41
24762;BME280;12865;51.934;10.330;2023-07-09T01:30:36;99528.63;;;19.60;74.10
24762;BME280;12865;51.934;10.330;2023-07-09T01:33:22;99524.91;;;19.47;74.22
24762;BME280;12865;51.934;10.330;2023-07-09T01:36:18;99530.22;;;19.40;74.36
24762;BME280;12865;51.934;10.330;2023-07-09T01:39:08;99527.44;;;19.34;75.40
24762;BME280;12865;51.934;10.330;2023-07-09T01:41:54;99525.84;;;19.25;76.30
24762;BME280;12865;51.934;10.330;2023-07-09T01:44:40;99524.91;;;19.17;76.89
24762;BME280;12865;51.934;10.330;2023-07-09T01:47:26;99520.25;;;19.11;76.00
24762;BME280;12865;51.934;10.330;2023-07-09T01:50:12;99520.34;;;19.18;75.53
24762;BME280;12865;51.934;10.330;2023-07-09T01:52:58;99520.34;;;19.18;75.87
24762;BME280;12865;51.934;10.330;2023-07-09T01:55:44;99521.00;;;19.20;75.53
24762;BME280;12865;51.934;10.330;2023-07-09T01:58:30;99514.84;;;19.26;74.84
24762;BME280;12865;51.934;10.330;2023-07-09T02:01:16;99517.16;;;19.29;74.34
24762;BME280;12865;51.934;10.330;2023-07-09T02:04:05;99511.38;;;19.32;73.37
24762;BME280;12865;51.934;10.330;2023-07-09T02:06:50;99510.06;;;19.28;73.41
24762;BME280;12865;51.934;10.330;2023-07-09T02:09:36;99498.03;;;19.31;72.94
24762;BME280;12865;51.934;10.330;2023-07-09T02:12:22;99495.34;;;19.31;72.44
24762;BME280;12865;51.934;10.330;2023-07-09T02:15:08;99498.53;;;19.34;71.50
24762;BME280;12865;51.934;10.330;2023-07-09T02:17:54;99497.38;;;19.43;70.95
24762;BME280;12865;51.934;10.330;2023-07-09T02:20:40;99500.06;;;19.43;70.49
24762;BME280;12865;51.934;10.330;2023-07-09T02:23:27;99503.06;;;19.48;69.73
24762;BME280;12865;51.934;10.330;2023-07-09T02:26:13;99500.72;;;19.45;69.98
24762;BME280;12865;51.934;10.330;2023-07-09T02:28:58;99497.38;;;19.43;69.53
24762;BME280;12865;51.934;10.330;2023-07-09T02:31:44;99498.72;;;19.47;68.57
24762;BME280;12865;51.934;10.330;2023-07-09T02:34:31;99506.13;;;19.45;70.22
24762;BME280;12865;51.934;10.330;2023-07-09T02:37:16;99505.59;;;19.35;71.81
24762;BME280;12865;51.934;10.330;2023-07-09T02:40:04;99512.78;;;19.28;72.80
24762;BME280;12865;51.934;10.330;2023-07-09T02:42:50;99510.66;;;18.94;74.36
24762;BME280;12865;51.934;10.330;2023-07-09T02:45:36;99512.34;;;18.95;74.50
24762;BME280;12865;51.934;10.330;2023-07-09T02:48:21;99512.31;;;18.80;75.86
24762;BME280;12865;51.934;10.330;2023-07-09T02:51:07;99508.16;;;18.78;75.75
24762;BME280;12865;51.934;10.330;2023-07-09T02:53:54;99516.03;;;18.79;75.07
24762;BME280;12865;51.934;10.330;2023-07-09T02:56:40;99511.13;;;18.83;74.79
24762;BME280;12865;51.934;10.330;2023-07-09T02:59:25;99513.66;;;18.85;74.90
24762;BME280;12865;51.934;10.330;2023-07-09T03:02:14;99509.19;;;18.92;74.73
24762;BME280;12865;51.934;10.330;2023-07-09T03:05:00;99514.19;;;18.95;74.75
24762;BME280;12865;51.934;10.330;2023-07-09T03:07:46;99514.75;;;18.90;75.88
24762;BME280;12865;51.934;10.330;2023-07-09T03:10:31;99510.47;;;18.81;77.33
24762;BME280;12865;51.934;10.330;2023-07-09T03:13:17;99512.03;;;18.61;79.35
24762;BME280;12865;51.934;10.330;2023-07-09T03:16:03;99519.78;;;18.41;80.88
24762;BME280;12865;51.934;10.330;2023-07-09T03:18:49;99513.97;;;18.29;81.83
24762;BME280;12865;51.934;10.330;2023-07-09T03:21:35;99525.03;;;18.20;82.64
24762;BME280;12865;51.934;10.330;2023-07-09T03:24:20;99527.06;;;18.18;83.52
24762;BME280;12865;51.934;10.330;2023-07-09T03:27:06;99525.13;;;18.26;82.93
24762;BME280;12865;51.934;10.330;2023-07-09T03:29:52;99532.09;;;18.21;83.80
24762;BME280;12865;51.934;10.330;2023-07-09T03:32:37;99527.91;;;18.18;84.18
24762;BME280;12865;51.934;10.330;2023-07-09T03:35:23;99523.78;;;18.08;84.96
24762;BME280;12865;51.934;10.330;2023-07-09T03:38:10;99533.41;;;18.02;85.30
24762;BME280;12865;51.934;10.330;2023-07-09T03:40:56;99538.16;;;18.00;85.57
24762;BME280;12865;51.934;10.330;2023-07-09T03:43:43;99539.91;;;17.93;86.94
24762;BME280;12865;51.934;10.330;2023-07-09T03:46:28;99538.88;;;17.94;86.54
24762;BME280;12865;51.934;10.330;2023-07-09T03:49:14;99541.59;;;17.94;87.24
24762;BME280;12865;51.934;10.330;2023-07-09T03:51:59;99539.56;;;17.88;88.08
24762;BME280;12865;51.934;10.330;2023-07-09T03:54:45;99534.84;;;17.90;88.53
24762;BME280;12865;51.934;10.330;2023-07-09T03:57:31;99537.31;;;17.99;87.93
24762;BME280;12865;51.934;10.330;2023-07-09T04:00:17;99538.75;;;18.10;87.49
24762;BME280;12865;51.934;10.330;2023-07-09T04:03:03;99541.03;;;17.98;88.80
24762;BME280;12865;51.934;10.330;2023-07-09T04:05:49;99535.81;;;17.97;89.16
24762;BME280;12865;51.934;10.330;2023-07-09T04:08:34;99543.06;;;17.96;89.45
24762;BME280;12865;51.934;10.330;2023-07-09T04:11:20;99543.06;;;17.96;91.33
24762;BME280;12865;51.934;10.330;2023-07-09T04:14:06;99539.47;;;18.04;90.57
24762;BME280;12865;51.934;10.330;2023-07-09T04:16:52;99540.38;;;18.19;89.61
24762;BME280;12865;51.934;10.330;2023-07-09T04:19:38;99541.78;;;18.30;90.17
24762;BME280;12865;51.934;10.330;2023-07-09T04:22:23;99543.47;;;18.31;90.27
24762;BME280;12865;51.934;10.330;2023-07-09T04:25:10;99539.41;;;18.35;90.49
24762;BME280;12865;51.934;10.330;2023-07-09T04:27:56;99536.16;;;18.39;91.42
24762;BME280;12865;51.934;10.330;2023-07-09T04:30:50;99537.94;;;18.47;91.70
24762;BME280;12865;51.934;10.330;2023-07-09T04:33:36;99537.22;;;18.53;91.38
24762;BME280;12865;51.934;10.330;2023-07-09T04:36:21;99542.41;;;18.63;90.95
24762;BME280;12865;51.934;10.330;2023-07-09T04:39:07;99541.28;;;18.72;91.61
24762;BME280;12865;51.934;10.330;2023-07-09T04:41:53;99531.91;;;18.82;91.45
24762;BME280;12865;51.934;10.330;2023-07-09T04:44:39;99537.03;;;18.92;91.40
24762;BME280;12865;51.934;10.330;2023-07-09T04:47:24;99534.72;;;19.04;92.05
24762;BME280;12865;51.934;10.330;2023-07-09T04:50:11;99539.00;;;19.13;92.27
24762;BME280;12865;51.934;10.330;2023-07-09T04:52:58;99541.50;;;19.29;91.94
24762;BME280;12865;51.934;10.330;2023-07-09T04:55:44;99534.13;;;19.38;91.87
24762;BME280;12865;51.934;10.330;2023-07-09T04:58:30;99532.44;;;19.51;92.10
24762;BME280;12865;51.934;10.330;2023-07-09T05:01:15;99534.88;;;19.61;92.67
24762;BME280;12865;51.934;10.330;2023-07-09T05:04:01;99536.88;;;19.74;91.76
24762;BME280;12865;51.934;10.330;2023-07-09T05:06:47;99543.09;;;19.89;92.38
24762;BME280;12865;51.934;10.330;2023-07-09T05:09:32;99535.94;;;20.03;92.33
24762;BME280;12865;51.934;10.330;2023-07-09T05:12:18;99534.66;;;20.20;91.14
24762;BME280;12865;51.934;10.330;2023-07-09T05:15:05;99538.41;;;20.40;86.06
24762;BME280;12865;51.934;10.330;2023-07-09T05:17:51;99545.19;;;20.51;85.15
24762;BME280;12865;51.934;10.330;2023-07-09T05:20:37;99545.53;;;20.69;83.89
24762;BME280;12865;51.934;10.330;2023-07-09T05:23:26;99540.47;;;20.87;81.62
24762;BME280;12865;51.934;10.330;2023-07-09T05:26:12;99548.25;;;21.03;81.38
24762;BME280;12865;51.934;10.330;2023-07-09T05:28:58;99543.78;;;21.17;84.51
24762;BME280;12865;51.934;10.330;2023-07-09T05:31:44;99550.34;;;21.29;83.37
24762;BME280;12865;51.934;10.330;2023-07-09T05:34:30;99548.28;;;21.38;79.51
24762;BME280;12865;51.934;10.330;2023-07-09T05:37:15;99549.63;;;21.55;81.10
24762;BME280;12865;51.934;10.330;2023-07-09T05:40:01;99551.31;;;21.63;80.55
24762;BME280;12865;51.934;10.330;2023-07-09T05:42:48;99555.56;;;21.78;78.95
24762;BME280;12865;51.934;10.330;2023-07-09T05:45:33;99557.06;;;21.94;75.43
24762;BME280;12865;51.934;10.330;2023-07-09T05:48:19;99548.56;;;22.04;72.69
24762;BME280;12865;51.934;10.330;2023-07-09T05:51:05;99554.84;;;22.17;72.50
24762;BME280;12865;51.934;10.330;2023-07-09T05:53:50;99557.59;;;22.30;70.50
24762;BME280;12865;51.934;10.330;2023-07-09T05:56:36;99557.84;;;22.49;70.70
24762;BME280;12865;51.934;10.330;2023-07-09T05:59:22;99564.50;;;22.59;70.38
24762;BME280;12865;51.934;10.330;2023-07-09T06:02:15;99567.50;;;22.78;70.26
24762;BME280;12865;51.934;10.330;2023-07-09T06:05:01;99567.03;;;22.94;70.61
24762;BME280;12865;51.934;10.330;2023-07-09T06:07:47;99564.69;;;23.17;70.29
24762;BME280;12865;51.934;10.330;2023-07-09T06:10:33;99564.44;;;23.38;70.49
24762;BME280;12865;51.934;10.330;2023-07-09T06:13:19;99569.63;;;23.60;70.05
24762;BME280;12865;51.934;10.330;2023-07-09T06:16:06;99568.31;;;23.75;68.30
24762;BME280;12865;51.934;10.330;2023-07-09T06:18:52;99571.22;;;23.80;68.39
24762;BME280;12865;51.934;10.330;2023-07-09T06:21:39;99570.94;;;23.95;68.67
24762;BME280;12865;51.934;10.330;2023-07-09T06:24:24;99571.03;;;24.13;69.08
24762;BME280;12865;51.934;10.330;2023-07-09T06:27:10;99572.03;;;24.25;68.84
24762;BME280;12865;51.934;10.330;2023-07-09T06:29:56;99569.50;;;24.31;67.87
24762;BME280;12865;51.934;10.330;2023-07-09T06:32:41;99567.38;;;24.33;68.06
24762;BME280;12865;51.934;10.330;2023-07-09T06:35:27;99574.25;;;24.42;67.32
24762;BME280;12865;51.934;10.330;2023-07-09T06:38:13;99581.88;;;24.58;67.42
24762;BME280;12865;51.934;10.330;2023-07-09T06:40:58;99581.66;;;24.84;66.89
24762;BME280;12865;51.934;10.330;2023-07-09T06:43:44;99590.47;;;24.86;66.50
24762;BME280;12865;51.934;10.330;2023-07-09T06:46:31;99582.88;;;24.88;66.68
24762;BME280;12865;51.934;10.330;2023-07-09T06:49:16;99587.34;;;24.83;66.12
24762;BME280;12865;51.934;10.330;2023-07-09T06:52:02;99587.13;;;24.84;66.16
24762;BME280;12865;51.934;10.330;2023-07-09T06:54:48;99583.94;;;24.94;65.07
24762;BME280;12865;51.934;10.330;2023-07-09T06:57:34;99585.22;;;25.10;61.57
24762;BME280;12865;51.934;10.330;2023-07-09T07:00:20;99594.66;;;25.32;61.43
24762;BME280;12865;51.934;10.330;2023-07-09T07:03:06;99589.38;;;25.55;61.27
24762;BME280;12865;51.934;10.330;2023-07-09T07:05:52;99589.09;;;25.81;57.49
24762;BME280;12865;51.934;10.330;2023-07-09T07:08:42;99590.97;;;25.81;56.25
24762;BME280;12865;51.934;10.330;2023-07-09T07:11:28;99592.25;;;25.97;57.93
24762;BME280;12865;51.934;10.330;2023-07-09T07:14:15;99588.56;;;26.21;58.45
24762;BME280;12865;51.934;10.330;2023-07-09T07:17:01;99592.34;;;26.38;56.77
24762;BME280;12865;51.934;10.330;2023-07-09T07:19:49;99588.66;;;26.44;57.74
24762;BME280;12865;51.934;10.330;2023-07-09T07:22:37;99582.91;;;26.76;58.71
24762;BME280;12865;51.934;10.330;2023-07-09T07:25:24;99590.53;;;26.85;57.75
24762;BME280;12865;51.934;10.330;2023-07-09T07:28:10;99586.28;;;27.01;60.16
24762;BME280;12865;51.934;10.330;2023-07-09T07:31:04;99592.25;;;27.33;58.60
24762;BME280;12865;51.934;10.330;2023-07-09T07:33:51;99580.44;;;27.56;57.55
24762;BME280;12865;51.934;10.330;2023-07-09T07:36:37;99583.63;;;27.64;54.69
24762;BME280;12865;51.934;10.330;2023-07-09T07:39:22;99581.97;;;27.75;55.00
24762;BME280;12865;51.934;10.330;2023-07-09T07:42:08;99576.28;;;27.93;57.88
24762;BME280;12865;51.934;10.330;2023-07-09T07:44:54;99580.19;;;27.97;55.11
24762;BME280;12865;51.934;10.330;2023-07-09T07:47:39;99578.66;;;28.01;56.62
24762;BME280;12865;51.934;10.330;2023-07-09T07:50:26;99584.34;;;28.40;56.48
24762;BME280;12865;51.934;10.330;2023-07-09T07:53:12;99573.94;;;28.42;55.32
24762;BME280;12865;51.934;10.330;2023-07-09T07:55:58;99575.38;;;28.44;57.28
24762;BME280;12865;51.934;10.330;2023-07-09T07:58:44;99586.31;;;28.28;56.74
24762;BME280;12865;51.934;10.330;2023-07-09T08:01:30;99586.16;;;28.34;54.69
24762;BME280;12865;51.934;10.330;2023-07-09T08:04:15;99584.41;;;28.28;48.72
24762;BME280;12865;51.934;10.330;2023-07-09T08:07:01;99581.00;;;28.09;49.46
24762;BME280;12865;51.934;10.330;2023-07-09T08:09:47;99580.16;;;28.21;47.98
24762;BME280;12865;51.934;10.330;2023-07-09T08:12:33;99585.00;;;28.30;47.21
24762;BME280;12865;51.934;10.330;2023-07-09T08:15:19;99585.75;;;28.42;46.71
24762;BME280;12865;51.934;10.330;2023-07-09T08:18:04;99583.28;;;28.74;47.02
24762;BME280;12865;51.934;10.330;2023-07-09T08:20:50;99587.94;;;29.24;40.72
24762;BME280;12865;51.934;10.330;2023-07-09T08:23:36;99573.84;;;29.54;39.61
24762;BME280;12865;51.934;10.330;2023-07-09T08:26:21;99583.41;;;29.51;39.37
24762;BME280;12865;51.934;10.330;2023-07-09T08:29:09;99579.72;;;29.41;39.49
24762;BME280;12865;51.934;10.330;2023-07-09T08:31:55;99586.28;;;29.23;40.03
24762;BME280;12865;51.934;10.330;2023-07-09T08:34:41;99586.31;;;29.61;40.78
24762;BME280;12865;51.934;10.330;2023-07-09T08:37:27;99591.13;;;29.93;41.66
24762;BME280;12865;51.934;10.330;2023-07-09T08:40:15;99596.19;;;30.28;39.87
24762;BME280;12865;51.934;10.330;2023-07-09T08:43:08;99593.69;;;30.48;40.67
24762;BME280;12865;51.934;10.330;2023-07-09T08:46:03;99585.34;;;30.43;39.94
24762;BME280;12865;51.934;10.330;2023-07-09T08:48:52;99587.34;;;30.48;42.81
24762;BME280;12865;51.934;10.330;2023-07-09T08:51:41;99587.56;;;30.68;42.92
24762;BME280;12865;51.934;10.330;2023-07-09T08:54:32;99585.78;;;30.89;41.64
24762;BME280;12865;51.934;10.330;2023-07-09T08:57:26;99578.72;;;30.98;42.97
24762;BME280;12865;51.934;10.330;2023-07-09T09:00:19;99587.94;;;31.13;42.35
24762;BME280;12865;51.934;10.330;2023-07-09T09:03:14;99584.00;;;30.72;42.50
24762;BME280;12865;51.934;10.330;2023-07-09T09:06:02;99577.84;;;30.60;43.97
24762;BME280;12865;51.934;10.330;2023-07-09T09:08:55;99576.06;;;30.76;42.86
24762;BME280;12865;51.934;10.330;2023-07-09T09:11:46;99581.91;;;31.16;43.54
24762;BME280;12865;51.934;10.330;2023-07-09T09:14:38;99574.84;;;31.36;43.14
24762;BME280;12865;51.934;10.330;2023-07-09T09:17:25;99582.38;;;31.50;42.06
24762;BME280;12865;51.934;10.330;2023-07-09T09:20:20;99579.16;;;31.64;43.60
24762;BME280;12865;51.934;10.330;2023-07-09T09:23:13;99583.41;;;31.91;42.65
24762;BME280;12865;51.934;10.330;2023-07-09T09:26:14;99579.22;;;31.74;43.50
24762;BME280;12865;51.934;10.330;2023-07-09T09:29:00;99584.81;;;32.04;43.55
24762;BME280;12865;51.934;10.330;2023-07-09T09:31:57;99587.28;;;31.43;44.05
24762;BME280;12865;51.934;10.330;2023-07-09T09:34:44;99583.22;;;31.51;44.08
24762;BME280;12865;51.934;10.330;2023-07-09T09:37:31;99587.75;;;31.67;44.25
24762;BME280;12865;51.934;10.330;2023-07-09T09:40:18;99582.94;;;32.10;45.40
24762;BME280;12865;51.934;10.330;2023-07-09T09:43:13;99578.22;;;32.10;41.94
24762;BME280;12865;51.934;10.330;2023-07-09T09:45:59;99579.97;;;32.21;41.81
24762;BME280;12865;51.934;10.330;2023-07-09T09:48:50;99586.34;;;32.52;41.22
24762;BME280;12865;51.934;10.330;2023-07-09T09:51:40;99588.59;;;32.81;40.95
24762;BME280;12865;51.934;10.330;2023-07-09T09:54:27;99584.19;;;32.80;40.58
24762;BME280;12865;51.934;10.330;2023-07-09T09:57:18;99587.22;;;32.98;38.77
24762;BME280;12865;51.934;10.330;2023-07-09T10:00:05;99591.34;;;33.41;36.05
24762;BME280;12865;51.934;10.330;2023-07-09T10:03:03;99590.75;;;33.44;36.21
24762;BME280;12865;51.934;10.330;2023-07-09T10:05:57;99594.63;;;33.48;36.58
24762;BME280;12865;51.934;10.330;2023-07-09T10:08:57;99595.22;;;33.05;35.65
24762;BME280;12865;51.934;10.330;2023-07-09T10:14:52;99587.09;;;33.69;36.20
24762;BME280;12865;51.934;10.330;2023-07-09T10:17:43;99583.59;;;33.38;35.82
24762;BME280;12865;51.934;10.330;2023-07-09T10:21:06;99581.41;;;33.15;36.26
24762;BME280;12865;51.934;10.330;2023-07-09T10:24:07;99583.81;;;33.62;37.18
24762;BME280;12865;51.934;10.330;2023-07-09T10:30:13;99587.72;;;34.25;36.37
24762;BME280;12865;51.934;10.330;2023-07-09T10:33:12;99586.06;;;33.50;35.77
24762;BME280;12865;51.934;10.330;2023-07-09T10:36:01;99586.38;;;33.33;36.71
24762;BME280;12865;51.934;10.330;2023-07-09T10:41:38;99587.66;;;33.76;34.99
24762;BME280;12865;51.934;10.330;2023-07-09T10:44:40;99576.78;;;33.95;35.37
24762;BME280;12865;51.934;10.330;2023-07-09T10:47:31;99581.28;;;33.71;35.94
24762;BME280;12865;51.934;10.330;2023-07-09T10:50:31;99578.19;;;34.42;33.96
24762;BME280;12865;51.934;10.330;2023-07-09T10:53:38;99571.34;;;34.34;34.46
24762;BME280;12865;51.934;10.330;2023-07-09T10:56:28;99577.72;;;34.68;34.03
24762;BME280;12865;51.934;10.330;2023-07-09T11:02:26;99573.47;;;34.47;33.67
24762;BME280;12865;51.934;10.330;2023-07-09T11:05:12;99572.75;;;34.99;33.20
24762;BME280;12865;51.934;10.330;2023-07-09T11:08:15;99576.97;;;34.97;33.29
24762;BME280;12865;51.934;10.330;2023-07-09T11:11:05;99570.34;;;34.54;34.40
24762;BME280;12865;51.934;10.330;2023-07-09T11:13:59;99560.78;;;33.82;35.55
24762;BME280;12865;51.934;10.330;2023-07-09T11:16:46;99567.00;;;34.57;35.27
24762;BME280;12865;51.934;10.330;2023-07-09T11:19:42;99561.31;;;34.77;34.27
24762;BME280;12865;51.934;10.330;2023-07-09T11:22:39;99561.66;;;34.99;32.78
24762;BME280;12865;51.934;10.330;2023-07-09T11:25:40;99563.22;;;34.48;33.59
24762;BME280;12865;51.934;10.330;2023-07-09T11:28:34;99558.75;;;34.86;34.51
24762;BME280;12865;51.934;10.330;2023-07-09T11:31:25;99559.13;;;33.81;33.88
24762;BME280;12865;51.934;10.330;2023-07-09T11:34:20;99556.41;;;34.64;34.09
24762;BME280;12865;51.934;10.330;2023-07-09T11:37:11;99561.31;;;35.11;32.31
24762;BME280;12865;51.934;10.330;2023-07-09T11:40:10;99552.38;;;34.85;31.94
24762;BME280;12865;51.934;10.330;2023-07-09T11:42:58;99551.28;;;34.86;33.29
24762;BME280;12865;51.934;10.330;2023-07-09T11:45:44;99551.84;;;35.41;32.19
24762;BME280;12865;51.934;10.330;2023-07-09T11:48:32;99549.94;;;35.84;30.96
24762;BME280;12865;51.934;10.330;2023-07-09T11:51:34;99545.47;;;36.07;30.86
24762;BME280;12865;51.934;10.330;2023-07-09T11:54:23;99551.78;;;35.94;29.64
24762;BME280;12865;51.934;10.330;2023-07-09T11:57:12;99546.16;;;35.99;30.67
24762;BME280;12865;51.934;10.330;2023-07-09T11:59:59;99549.41;;;35.82;30.46
24762;BME280;12865;51.934;10.330;2023-07-09T12:02:46;99546.53;;;35.44;29.79
24762;BME280;12865;51.934;10.330;2023-07-09T12:05:32;99544.56;;;34.92;30.38
24762;BME280;12865;51.934;10.330;2023-07-09T12:08:25;99549.03;;;35.17;30.09
24762;BME280;12865;51.934;10.330;2023-07-09T12:11:32;99542.06;;;35.72;30.77
24762;BME280;12865;51.934;10.330;2023-07-09T12:14:20;99535.72;;;35.43;29.82
24762;BME280;12865;51.934;10.330;2023-07-09T12:17:08;99536.56;;;35.43;30.56
24762;BME280;12865;51.934;10.330;2023-07-09T12:19:54;99541.22;;;36.14;29.65
24762;BME280;12865;51.934;10.330;2023-07-09T12:22:40;99540.38;;;36.14;29.74
24762;BME280;12865;51.934;10.330;2023-07-09T12:25:29;99540.44;;;36.46;29.69
24762;BME280;12865;51.934;10.330;2023-07-09T12:28:16;99532.81;;;36.01;28.95
24762;BME280;12865;51.934;10.330;2023-07-09T12:31:02;99523.56;;;35.87;28.97
24762;BME280;12865;51.934;10.330;2023-07-09T12:33:49;99525.53;;;36.42;30.23
24762;BME280;12865;51.934;10.330;2023-07-09T12:36:38;99523.34;;;36.58;28.97
24762;BME280;12865;51.934;10.330;2023-07-09T12:39:29;99517.94;;;36.80;29.53
24762;BME280;12865;51.934;10.330;2023-07-09T12:42:17;99516.88;;;37.09;27.63
24762;BME280;12865;51.934;10.330;2023-07-09T12:45:04;99519.50;;;36.73;29.10
24762;BME280;12865;51.934;10.330;2023-07-09T12:47:50;99512.66;;;36.97;28.55
24762;BME280;12865;51.934;10.330;2023-07-09T12:50:37;99512.97;;;37.10;28.19
24762;BME280;12865;51.934;10.330;2023-07-09T12:53:24;99510.28;;;37.05;27.71
24762;BME280;12865;51.934;10.330;2023-07-09T12:56:13;99507.50;;;37.05;27.56
24762;BME280;12865;51.934;10.330;2023-07-09T12:59:02;99502.03;;;36.86;28.00
24762;BME280;12865;51.934;10.330;2023-07-09T13:02:06;99508.19;;;36.83;28.15
24762;BME280;12865;51.934;10.330;2023-07-09T13:05:03;99498.72;;;36.51;28.06
24762;BME280;12865;51.934;10.330;2023-07-09T13:07:52;99504.53;;;36.36;27.97
24762;BME280;12865;51.934;10.330;2023-07-09T13:10:40;99504.13;;;36.05;28.53
24762;BME280;12865;51.934;10.330;2023-07-09T13:13:26;99499.22;;;36.53;30.95
24762;BME280;12865;51.934;10.330;2023-07-09T13:16:13;99503.88;;;36.90;30.05
24762;BME280;12865;51.934;10.330;2023-07-09T13:18:59;99495.03;;;37.02;28.62
24762;BME280;12865;51.934;10.330;2023-07-09T13:21:45;99490.34;;;37.30;30.13
24762;BME280;12865;51.934;10.330;2023-07-09T13:24:32;99493.63;;;37.46;28.02
24762;BME280;12865;51.934;10.330;2023-07-09T13:27:18;99481.09;;;36.75;28.24
24762;BME280;12865;51.934;10.330;2023-07-09T13:30:04;99481.00;;;36.47;28.83
24762;BME280;12865;51.934;10.330;2023-07-09T13:32:50;99480.50;;;36.78;29.00
24762;BME280;12865;51.934;10.330;2023-07-09T13:35:36;99474.75;;;37.02;28.92
24762;BME280;12865;51.934;10.330;2023-07-09T13:38:23;99468.72;;;37.13;29.19
24762;BME280;12865;51.934;10.330;2023-07-09T13:41:20;99479.53;;;37.42;29.60
24762;BME280;12865;51.934;10.330;2023-07-09T13:44:30;99471.28;;;37.23;28.46
24762;BME280;12865;51.934;10.330;2023-07-09T13:47:18;99467.06;;;37.40;29.15
24762;BME280;12865;51.934;10.330;2023-07-09T13:50:04;99468.16;;;36.84;28.31
24762;BME280;12865;51.934;10.330;2023-07-09T13:52:50;99456.88;;;36.29;28.91
24762;BME280;12865;51.934;10.330;2023-07-09T13:55:36;99455.41;;;36.13;29.34
24762;BME280;12865;51.934;10.330;2023-07-09T13:58:24;99443.25;;;36.60;29.73
24762;BME280;12865;51.934;10.330;2023-07-09T14:01:15;99446.69;;;36.38;29.28
24762;BME280;12865;51.934;10.330;2023-07-09T14:04:02;99443.28;;;35.90;29.78
24762;BME280;12865;51.934;10.330;2023-07-09T14:06:48;99436.47;;;36.01;29.96
24762;BME280;12865;51.934;10.330;2023-07-09T14:09:34;99432.78;;;35.87;30.65
24762;BME280;12865;51.934;10.330;2023-07-09T14:12:20;99434.22;;;36.22;32.16
24762;BME280;12865;51.934;10.330;2023-07-09T14:15:12;99427.47;;;36.74;30.37
24762;BME280;12865;51.934;10.330;2023-07-09T14:17:58;99428.09;;;36.71;30.49
24762;BME280;12865;51.934;10.330;2023-07-09T14:20:44;99428.69;;;36.68;28.05
24762;BME280;12865;51.934;10.330;2023-07-09T14:23:30;99423.16;;;36.82;30.65
24762;BME280;12865;51.934;10.330;2023-07-09T14:26:16;99423.78;;;37.06;32.37
24762;BME280;12865;51.934;10.330;2023-07-09T14:29:01;99423.16;;;37.23;28.77
24762;BME280;12865;51.934;10.330;2023-07-09T14:31:47;99420.31;;;37.28;29.50
24762;BME280;12865;51.934;10.330;2023-07-09T14:34:33;99422.88;;;37.24;28.92
24762;BME280;12865;51.934;10.330;2023-07-09T14:37:19;99424.66;;;36.28;28.96
24762;BME280;12865;51.934;10.330;2023-07-09T14:40:05;99428.41;;;36.97;28.63
24762;BME280;12865;51.934;10.330;2023-07-09T14:42:51;99423.66;;;36.70;30.51
24762;BME280;12865;51.934;10.330;2023-07-09T14:45:37;99418.00;;;36.89;29.36
24762;BME280;12865;51.934;10.330;2023-07-09T14:48:23;99421.84;;;37.07;30.23
24762;BME280;12865;51.934;10.330;2023-07-09T14:51:15;99420.06;;;37.38;29.53
24762;BME280;12865;51.934;10.330;2023-07-09T14:54:01;99421.50;;;37.63;28.08
24762;BME280;12865;51.934;10.330;2023-07-09T14:56:47;99414.50;;;37.38;28.57
24762;BME280;12865;51.934;10.330;2023-07-09T14:59:33;99419.97;;;37.29;31.50